createdAt,value
2022-09-16T00:01:12.527Z,1.20
2022-09-16T00:06:21.509Z,1.17
2022-09-16T00:11:25.715Z,2.03
2022-09-16T00:16:29.817Z,1.55
2022-09-16T00:21:34.043Z,1.92
2022-09-16T00:26:38.617Z,1.60
2022-09-16T00:31:41.412Z,1.80
2022-09-16T00:36:45.600Z,2.22
2022-09-16T00:41:48.667Z,2.65
2022-09-16T00:46:52.019Z,1.58
2022-09-16T00:52:01.858Z,1.73
2022-09-16T00:57:06.556Z,2.05
2022-09-16T01:02:12.886Z,2.58
2022-09-16T01:07:19.490Z,2.13
2022-09-16T01:12:22.301Z,2.05
2022-09-16T01:22:47.146Z,1.85
2022-09-16T01:28:14.697Z,1.90
2022-09-16T01:33:29.215Z,1.73
2022-09-16T01:38:51.816Z,1.60
2022-09-16T01:44:01.903Z,1.42
2022-09-16T01:49:17.941Z,2.20
2022-09-16T01:54:28.430Z,1.70
2022-09-16T01:59:39.467Z,1.98
2022-09-16T02:04:48.542Z,1.52
2022-09-16T02:09:56.981Z,1.95
2022-09-16T02:15:06.532Z,1.40
2022-09-16T02:20:14.417Z,1.75
2022-09-16T02:25:20.451Z,1.80
2022-09-16T02:30:24.229Z,1.88
2022-09-16T02:35:31.570Z,2.00
2022-09-16T02:40:38.912Z,1.92
2022-09-16T02:45:49.721Z,2.38
2022-09-16T02:51:03.055Z,2.42
2022-09-16T02:56:14.542Z,2.72
2022-09-16T03:01:19.024Z,2.50
2022-09-16T03:06:25.065Z,2.33
2022-09-16T03:11:42.412Z,2.50
2022-09-16T03:16:55.206Z,2.30
2022-09-16T03:27:11.366Z,3.05
2022-09-16T03:32:22.211Z,3.17
2022-09-16T03:37:32.088Z,2.80
2022-09-16T03:42:35.117Z,2.92
2022-09-16T03:47:37.961Z,2.80
2022-09-16T03:52:42.103Z,2.55
2022-09-16T03:57:44.941Z,2.00
2022-09-16T04:02:47.813Z,2.30
2022-09-16T04:07:52.040Z,2.40
2022-09-16T04:12:58.476Z,2.25
2022-09-16T04:18:01.430Z,1.95
2022-09-16T04:23:05.708Z,1.80
2022-09-16T04:28:08.895Z,1.95
2022-09-16T04:33:11.645Z,2.10
2022-09-16T04:43:18.322Z,2.00
2022-09-16T04:53:25.026Z,1.80
2022-09-16T04:58:30.045Z,2.30
2022-09-16T05:03:33.502Z,1.83
2022-09-16T05:08:37.727Z,2.13
2022-09-16T05:13:41.072Z,2.28
2022-09-16T05:18:45.276Z,2.03
2022-09-16T05:23:49.643Z,2.08
2022-09-16T05:28:52.752Z,2.17
2022-09-16T05:33:56.889Z,2.83
2022-09-16T05:44:24.045Z,3.75
2022-09-16T05:49:26.875Z,3.95
2022-09-16T05:54:31.492Z,2.47
2022-09-16T05:59:34.199Z,2.80
2022-09-16T06:04:37.033Z,2.67
2022-09-16T06:09:41.697Z,2.80
2022-09-16T06:14:44.376Z,3.03
2022-09-16T06:24:52.324Z,3.47
2022-09-16T06:29:55.044Z,2.70
2022-09-16T06:40:01.776Z,1.83
2022-09-16T06:45:05.195Z,3.00
2022-09-16T06:50:08.339Z,2.53
2022-09-16T06:55:12.674Z,3.50
2022-09-16T07:00:15.951Z,3.65
2022-09-16T07:05:18.772Z,4.20
2022-09-16T07:10:24.114Z,3.67
2022-09-16T07:15:26.841Z,3.30
2022-09-16T07:25:35.969Z,2.60
2022-09-16T07:30:38.830Z,2.88
2022-09-16T07:35:41.738Z,1.88
2022-09-16T07:40:45.761Z,1.50
2022-09-16T07:45:48.551Z,1.67
2022-09-16T07:50:56.147Z,1.83
2022-09-16T07:56:05.265Z,1.70
2022-09-16T08:01:08.826Z,1.23
2022-09-16T08:06:13.802Z,1.90
2022-09-16T08:11:17.956Z,1.20
2022-09-16T08:16:22.671Z,1.10
2022-09-16T08:21:27.293Z,0.82
2022-09-16T08:26:31.534Z,0.75
2022-09-16T08:31:34.418Z,0.73
2022-09-16T08:36:37.186Z,0.95
2022-09-16T08:41:57.600Z,0.95
2022-09-16T08:47:03.203Z,0.65
2022-09-16T08:52:13.217Z,1.20
2022-09-16T08:57:21.632Z,1.02
2022-09-16T09:02:38.576Z,0.90
2022-09-16T09:07:54.529Z,1.25
2022-09-16T09:13:10.195Z,0.75
2022-09-16T09:18:31.237Z,1.05
2022-09-16T09:23:54.994Z,1.02
2022-09-16T09:29:22.104Z,1.38
2022-09-16T09:34:41.699Z,1.23
2022-09-16T09:39:57.420Z,0.50
2022-09-16T09:45:05.719Z,1.00
2022-09-16T09:50:18.573Z,1.20
2022-09-16T09:55:24.753Z,2.20
2022-09-16T10:00:29.095Z,1.95
2022-09-16T10:05:32.766Z,1.60
2022-09-16T10:10:39.894Z,1.95
2022-09-16T10:15:44.651Z,1.10
2022-09-16T10:20:59.075Z,0.80
2022-09-16T10:26:08.430Z,1.17
2022-09-16T10:31:12.882Z,0.80
2022-09-16T10:36:20.789Z,0.60
2022-09-16T10:41:25.896Z,0.90
2022-09-16T10:46:30.974Z,0.90
2022-09-16T10:51:34.681Z,0.90
2022-09-16T10:56:49.244Z,0.70
2022-09-16T11:02:05.833Z,0.70
2022-09-16T11:07:24.720Z,1.00
2022-09-16T11:12:49.764Z,1.30
2022-09-16T11:18:08.781Z,0.77
2022-09-16T11:23:26.717Z,0.88
2022-09-16T11:29:10.190Z,1.17
2022-09-16T11:34:28.887Z,0.47
2022-09-16T11:39:47.687Z,0.80
2022-09-16T11:44:56.822Z,1.00
2022-09-16T11:50:13.324Z,0.68
2022-09-16T11:55:35.393Z,0.88
2022-09-16T12:00:41.221Z,0.75
2022-09-16T12:05:53.454Z,0.55
2022-09-16T12:11:01.331Z,0.40
2022-09-16T12:16:07.459Z,0.20
2022-09-16T12:21:16.525Z,0.45
2022-09-16T12:26:22.635Z,0.20
2022-09-16T12:31:32.442Z,0.40
2022-09-16T12:36:40.281Z,0.20
2022-09-16T12:42:02.914Z,0.10
2022-09-16T12:47:51.221Z,0.30
2022-09-16T12:53:15.354Z,1.38
2022-09-16T12:59:00.565Z,0.20
2022-09-16T13:04:15.173Z,0.50
2022-09-16T13:09:24.997Z,0.85
2022-09-16T13:14:32.120Z,0.80
2022-09-16T13:19:46.383Z,1.48
2022-09-16T13:24:55.927Z,1.25
2022-09-16T13:30:31.272Z,0.52
2022-09-16T13:35:40.906Z,0.88
2022-09-16T13:40:56.841Z,0.43
2022-09-16T13:46:08.622Z,0.60
2022-09-16T13:51:18.340Z,0.67
2022-09-16T13:56:48.873Z,0.70
2022-09-16T14:02:10.464Z,0.75
2022-09-16T14:07:27.323Z,1.05
2022-09-16T14:12:42.751Z,1.02
2022-09-16T14:17:51.397Z,0.90
2022-09-16T14:23:05.874Z,0.73
2022-09-16T14:28:18.621Z,0.77
2022-09-16T14:33:25.701Z,1.15
2022-09-16T14:38:45.640Z,0.82
2022-09-16T14:43:51.420Z,1.13
2022-09-16T14:48:54.380Z,1.90
2022-09-16T14:54:12.230Z,0.77
2022-09-16T14:59:17.831Z,0.70
2022-09-16T15:04:26.324Z,0.85
2022-09-16T15:09:38.609Z,0.80
2022-09-16T15:14:42.779Z,0.57
2022-09-16T15:19:52.296Z,0.93
2022-09-16T15:24:58.459Z,1.20
2022-09-16T15:30:05.637Z,1.77
2022-09-16T15:35:23.489Z,2.08
2022-09-16T15:40:35.680Z,1.10
2022-09-16T15:45:40.468Z,1.27
2022-09-16T15:50:47.688Z,1.05
2022-09-16T15:56:01.366Z,1.02
2022-09-16T16:01:11.540Z,1.05
2022-09-16T16:06:14.694Z,0.65
2022-09-16T16:11:19.104Z,0.80
2022-09-16T16:16:23.454Z,0.82
2022-09-16T16:21:26.252Z,0.80
2022-09-16T16:26:29.368Z,0.40
2022-09-16T16:31:34.959Z,0.98
2022-09-16T16:36:37.909Z,0.80
2022-09-16T16:41:40.745Z,0.85
2022-09-16T16:46:44.995Z,0.88
2022-09-16T16:51:49.893Z,1.48
2022-09-16T16:56:52.847Z,0.88
2022-09-16T17:01:58.317Z,1.30
2022-09-16T17:07:24.763Z,1.40
2022-09-16T17:12:24.836Z,1.65
2022-09-16T17:17:31.674Z,1.30
2022-09-16T17:22:34.826Z,1.48
2022-09-16T17:27:37.570Z,1.42
2022-09-16T17:37:44.497Z,1.52
2022-09-16T17:47:57.719Z,1.67
2022-09-16T17:53:00.577Z,1.55
2022-09-16T17:58:03.583Z,1.60
2022-09-16T18:03:08.126Z,1.77
2022-09-16T18:08:11.048Z,1.30
2022-09-16T18:13:13.871Z,1.27
2022-09-16T18:23:22.236Z,1.85
2022-09-16T18:28:25.260Z,1.55
2022-09-16T18:33:29.671Z,1.55
2022-09-16T18:38:33.945Z,2.70
2022-09-16T18:43:39.461Z,1.58
2022-09-16T18:48:45.382Z,1.55
2022-09-16T18:53:49.694Z,2.00
2022-09-16T18:59:17.107Z,1.80
2022-09-16T19:04:19.224Z,1.75
2022-09-16T19:09:23.971Z,2.35
2022-09-16T19:14:27.429Z,1.67
2022-09-16T19:19:31.821Z,1.50
2022-09-16T19:24:35.097Z,1.58
2022-09-16T19:29:37.901Z,1.50
2022-09-16T19:39:44.936Z,2.40
2022-09-16T19:49:51.773Z,1.30
2022-09-16T19:54:54.586Z,0.95
2022-09-16T20:05:03.026Z,2.13
2022-09-16T20:10:09.075Z,2.15
2022-09-16T20:15:11.994Z,1.45
2022-09-16T20:20:16.413Z,1.50
2022-09-16T20:25:23.537Z,1.60
2022-09-16T20:30:26.572Z,1.20
2022-09-16T20:40:33.463Z,1.67
2022-09-16T20:45:37.158Z,1.45
2022-09-16T20:50:41.319Z,1.77
2022-09-16T20:55:44.046Z,1.55
2022-09-16T21:00:48.007Z,1.95
2022-09-16T21:05:52.128Z,1.80
2022-09-16T21:11:00.349Z,1.55
2022-09-16T21:16:03.760Z,1.70
2022-09-16T21:21:09.746Z,1.90
2022-09-16T21:26:14.179Z,2.30
2022-09-16T21:31:18.420Z,1.52
2022-09-16T21:36:24.369Z,2.47
2022-09-16T21:41:27.627Z,2.72
2022-09-16T21:46:32.767Z,2.03
2022-09-16T21:51:38.759Z,1.65
2022-09-16T21:56:42.404Z,1.17
2022-09-16T22:01:45.216Z,1.33
2022-09-16T22:06:49.808Z,1.52
2022-09-16T22:11:52.607Z,1.45
2022-09-16T22:21:59.330Z,1.88
2022-09-16T22:27:02.100Z,1.98
2022-09-16T22:37:09.262Z,2.75
2022-09-16T22:42:12.029Z,1.30
2022-09-16T22:52:18.707Z,1.52
2022-09-16T22:57:21.477Z,1.98
2022-09-16T23:07:29.793Z,1.77
2022-09-16T23:12:32.629Z,1.70
2022-09-16T23:17:35.408Z,1.95
2022-09-16T23:27:42.858Z,1.48
2022-09-16T23:32:45.969Z,2.08
2022-09-16T23:37:50.080Z,2.67
2022-09-16T23:42:52.846Z,2.35
2022-09-16T23:52:59.932Z,2.03
2022-09-16T23:58:02.748Z,2.85
